sensor_id;sensor_type;location;lat;lon;timestamp;P1;durP1;ratioP1;P2;durP2;ratioP2
61250;SDS011;47126;47.508;8.590;2023-11-19T00:02:20;7.32;;;3.65;;
61250;SDS011;47126;47.508;8.590;2023-11-19T00:04:46;6.63;;;3.58;;
61250;SDS011;47126;47.508;8.590;2023-11-19T00:07:13;6.82;;;3.70;;
61250;SDS011;47126;47.508;8.590;2023-11-19T00:09:39;5.40;;;3.35;;
61250;SDS011;47126;47.508;8.590;2023-11-19T00:12:05;4.65;;;3.10;;
61250;SDS011;47126;47.508;8.590;2023-11-19T00:14:32;6.03;;;3.08;;
61250;SDS011;47126;47.508;8.590;2023-11-19T00:16:58;6.72;;;3.53;;
61250;SDS011;47126;47.508;8.590;2023-11-19T00:19:24;8.88;;;4.55;;
61250;SDS011;47126;47.508;8.590;2023-11-19T00:21:51;4.38;;;3.17;;
61250;SDS011;47126;47.508;8.590;2023-11-19T00:24:17;5.20;;;3.08;;
61250;SDS011;47126;47.508;8.590;2023-11-19T00:26:43;4.15;;;2.85;;
61250;SDS011;47126;47.508;8.590;2023-11-19T00:29:09;5.15;;;2.85;;
61250;SDS011;47126;47.508;8.590;2023-11-19T00:31:35;5.63;;;3.00;;
61250;SDS011;47126;47.508;8.590;2023-11-19T00:34:02;5.85;;;2.75;;
61250;SDS011;47126;47.508;8.590;2023-11-19T00:36:28;6.00;;;2.78;;
61250;SDS011;47126;47.508;8.590;2023-11-19T00:38:54;5.65;;;3.15;;
61250;SDS011;47126;47.508;8.590;2023-11-19T00:41:20;6.32;;;2.65;;
61250;SDS011;47126;47.508;8.590;2023-11-19T00:43:47;3.10;;;2.22;;
61250;SDS011;47126;47.508;8.590;2023-11-19T00:46:14;4.22;;;2.45;;
61250;SDS011;47126;47.508;8.590;2023-11-19T00:48:40;8.07;;;2.60;;
61250;SDS011;47126;47.508;8.590;2023-11-19T00:51:06;3.67;;;2.28;;
61250;SDS011;47126;47.508;8.590;2023-11-19T00:53:33;4.40;;;2.30;;
61250;SDS011;47126;47.508;8.590;2023-11-19T00:55:59;3.58;;;2.15;;
61250;SDS011;47126;47.508;8.590;2023-11-19T00:58:25;4.10;;;2.17;;
61250;SDS011;47126;47.508;8.590;2023-11-19T01:00:52;3.60;;;2.15;;
61250;SDS011;47126;47.508;8.590;2023-11-19T01:03:18;3.55;;;2.03;;
61250;SDS011;47126;47.508;8.590;2023-11-19T01:05:44;3.17;;;2.00;;
61250;SDS011;47126;47.508;8.590;2023-11-19T01:08:12;2.55;;;1.83;;
61250;SDS011;47126;47.508;8.590;2023-11-19T01:10:38;8.35;;;2.42;;
61250;SDS011;47126;47.508;8.590;2023-11-19T01:13:03;4.63;;;1.95;;
61250;SDS011;47126;47.508;8.590;2023-11-19T01:15:31;3.63;;;2.13;;
61250;SDS011;47126;47.508;8.590;2023-11-19T01:17:57;33.58;;;3.47;;
61250;SDS011;47126;47.508;8.590;2023-11-19T01:20:23;5.45;;;2.30;;
61250;SDS011;47126;47.508;8.590;2023-11-19T01:22:49;4.07;;;2.33;;
61250;SDS011;47126;47.508;8.590;2023-11-19T01:25:15;3.90;;;2.15;;
61250;SDS011;47126;47.508;8.590;2023-11-19T01:27:41;4.63;;;3.60;;
61250;SDS011;47126;47.508;8.590;2023-11-19T01:30:08;6.00;;;3.97;;
61250;SDS011;47126;47.508;8.590;2023-11-19T01:32:37;4.40;;;2.00;;
61250;SDS011;47126;47.508;8.590;2023-11-19T01:35:03;4.38;;;2.25;;
61250;SDS011;47126;47.508;8.590;2023-11-19T01:37:29;3.72;;;2.10;;
61250;SDS011;47126;47.508;8.590;2023-11-19T01:39:57;4.93;;;2.25;;
61250;SDS011;47126;47.508;8.590;2023-11-19T01:42:23;2.35;;;1.48;;
61250;SDS011;47126;47.508;8.590;2023-11-19T01:44:57;5.13;;;1.90;;
61250;SDS011;47126;47.508;8.590;2023-11-19T01:47:24;3.78;;;2.30;;
61250;SDS011;47126;47.508;8.590;2023-11-19T01:49:50;3.20;;;1.80;;
61250;SDS011;47126;47.508;8.590;2023-11-19T01:52:17;3.47;;;1.95;;
61250;SDS011;47126;47.508;8.590;2023-11-19T01:54:43;3.60;;;1.85;;
61250;SDS011;47126;47.508;8.590;2023-11-19T01:57:10;3.58;;;1.77;;
61250;SDS011;47126;47.508;8.590;2023-11-19T01:59:36;4.20;;;2.10;;
61250;SDS011;47126;47.508;8.590;2023-11-19T02:02:03;4.47;;;2.00;;
61250;SDS011;47126;47.508;8.590;2023-11-19T02:04:30;3.03;;;1.90;;
61250;SDS011;47126;47.508;8.590;2023-11-19T02:06:56;4.20;;;2.30;;
61250;SDS011;47126;47.508;8.590;2023-11-19T02:09:24;16.63;;;2.75;;
61250;SDS011;47126;47.508;8.590;2023-11-19T02:11:50;4.57;;;2.28;;
61250;SDS011;47126;47.508;8.590;2023-11-19T02:14:17;2.50;;;1.92;;
61250;SDS011;47126;47.508;8.590;2023-11-19T02:16:43;4.22;;;2.22;;
61250;SDS011;47126;47.508;8.590;2023-11-19T02:19:09;3.80;;;2.20;;
61250;SDS011;47126;47.508;8.590;2023-11-19T02:21:36;4.78;;;2.33;;
61250;SDS011;47126;47.508;8.590;2023-11-19T02:24:03;2.90;;;1.63;;
61250;SDS011;47126;47.508;8.590;2023-11-19T02:26:56;4.38;;;2.20;;
61250;SDS011;47126;47.508;8.590;2023-11-19T02:29:19;4.07;;;2.05;;
61250;SDS011;47126;47.508;8.590;2023-11-19T02:31:45;4.35;;;2.20;;
61250;SDS011;47126;47.508;8.590;2023-11-19T02:34:12;4.20;;;2.67;;
61250;SDS011;47126;47.508;8.590;2023-11-19T02:36:38;3.30;;;2.20;;
61250;SDS011;47126;47.508;8.590;2023-11-19T02:39:06;5.28;;;2.65;;
61250;SDS011;47126;47.508;8.590;2023-11-19T02:41:35;2.83;;;2.40;;
61250;SDS011;47126;47.508;8.590;2023-11-19T02:44:01;4.47;;;2.40;;
61250;SDS011;47126;47.508;8.590;2023-11-19T02:46:28;5.65;;;2.15;;
61250;SDS011;47126;47.508;8.590;2023-11-19T02:48:54;4.10;;;1.90;;
61250;SDS011;47126;47.508;8.590;2023-11-19T02:51:20;3.60;;;1.88;;
61250;SDS011;47126;47.508;8.590;2023-11-19T02:53:47;5.35;;;2.30;;
61250;SDS011;47126;47.508;8.590;2023-11-19T02:56:13;4.18;;;2.10;;
61250;SDS011;47126;47.508;8.590;2023-11-19T02:58:50;5.22;;;2.42;;
61250;SDS011;47126;47.508;8.590;2023-11-19T03:01:25;4.57;;;2.33;;
61250;SDS011;47126;47.508;8.590;2023-11-19T03:03:56;7.10;;;2.30;;
61250;SDS011;47126;47.508;8.590;2023-11-19T03:06:23;6.93;;;2.72;;
61250;SDS011;47126;47.508;8.590;2023-11-19T03:08:49;5.07;;;2.63;;
61250;SDS011;47126;47.508;8.590;2023-11-19T03:11:15;5.03;;;2.90;;
61250;SDS011;47126;47.508;8.590;2023-11-19T03:13:41;5.43;;;3.33;;
61250;SDS011;47126;47.508;8.590;2023-11-19T03:16:07;5.15;;;2.72;;
61250;SDS011;47126;47.508;8.590;2023-11-19T03:18:33;6.68;;;3.40;;
61250;SDS011;47126;47.508;8.590;2023-11-19T03:20:59;6.57;;;4.13;;
61250;SDS011;47126;47.508;8.590;2023-11-19T03:23:25;6.18;;;3.33;;
61250;SDS011;47126;47.508;8.590;2023-11-19T03:25:54;6.25;;;3.15;;
61250;SDS011;47126;47.508;8.590;2023-11-19T03:28:21;6.90;;;3.65;;
61250;SDS011;47126;47.508;8.590;2023-11-19T03:30:47;7.40;;;3.38;;
61250;SDS011;47126;47.508;8.590;2023-11-19T03:33:14;5.75;;;3.45;;
61250;SDS011;47126;47.508;8.590;2023-11-19T03:35:40;5.88;;;3.67;;
61250;SDS011;47126;47.508;8.590;2023-11-19T03:38:06;8.05;;;4.10;;
61250;SDS011;47126;47.508;8.590;2023-11-19T03:40:32;8.13;;;4.50;;
61250;SDS011;47126;47.508;8.590;2023-11-19T03:42:58;5.93;;;3.38;;
61250;SDS011;47126;47.508;8.590;2023-11-19T03:45:24;9.68;;;4.00;;
61250;SDS011;47126;47.508;8.590;2023-11-19T03:47:50;8.82;;;4.43;;
61250;SDS011;47126;47.508;8.590;2023-11-19T03:50:16;8.13;;;4.00;;
61250;SDS011;47126;47.508;8.590;2023-11-19T03:52:45;7.43;;;4.20;;
61250;SDS011;47126;47.508;8.590;2023-11-19T03:55:11;8.68;;;4.00;;
61250;SDS011;47126;47.508;8.590;2023-11-19T03:57:37;7.03;;;3.63;;
61250;SDS011;47126;47.508;8.590;2023-11-19T04:00:03;8.25;;;4.00;;
61250;SDS011;47126;47.508;8.590;2023-11-19T04:02:34;7.22;;;3.67;;
61250;SDS011;47126;47.508;8.590;2023-11-19T04:05:00;6.88;;;3.67;;
61250;SDS011;47126;47.508;8.590;2023-11-19T04:07:27;6.68;;;3.33;;
61250;SDS011;47126;47.508;8.590;2023-11-19T04:09:53;8.45;;;3.75;;
61250;SDS011;47126;47.508;8.590;2023-11-19T04:12:19;7.90;;;4.35;;
61250;SDS011;47126;47.508;8.590;2023-11-19T04:14:45;9.75;;;4.07;;
61250;SDS011;47126;47.508;8.590;2023-11-19T04:17:11;5.97;;;3.72;;
61250;SDS011;47126;47.508;8.590;2023-11-19T04:19:37;7.90;;;3.53;;
61250;SDS011;47126;47.508;8.590;2023-11-19T04:22:03;6.32;;;3.40;;
61250;SDS011;47126;47.508;8.590;2023-11-19T04:24:30;6.47;;;3.40;;
61250;SDS011;47126;47.508;8.590;2023-11-19T04:26:56;5.80;;;3.28;;
61250;SDS011;47126;47.508;8.590;2023-11-19T04:29:22;6.72;;;2.70;;
61250;SDS011;47126;47.508;8.590;2023-11-19T04:31:48;6.43;;;3.40;;
61250;SDS011;47126;47.508;8.590;2023-11-19T04:34:14;5.93;;;3.42;;
61250;SDS011;47126;47.508;8.590;2023-11-19T04:36:40;6.28;;;3.15;;
61250;SDS011;47126;47.508;8.590;2023-11-19T04:39:06;5.35;;;3.28;;
61250;SDS011;47126;47.508;8.590;2023-11-19T04:41:46;4.82;;;2.70;;
61250;SDS011;47126;47.508;8.590;2023-11-19T04:44:13;6.90;;;3.10;;
61250;SDS011;47126;47.508;8.590;2023-11-19T04:46:40;5.88;;;3.05;;
61250;SDS011;47126;47.508;8.590;2023-11-19T04:49:08;6.35;;;2.83;;
61250;SDS011;47126;47.508;8.590;2023-11-19T04:51:42;7.22;;;3.30;;
61250;SDS011;47126;47.508;8.590;2023-11-19T04:54:08;6.28;;;2.95;;
61250;SDS011;47126;47.508;8.590;2023-11-19T04:56:35;6.35;;;3.03;;
61250;SDS011;47126;47.508;8.590;2023-11-19T04:59:02;6.57;;;3.20;;
61250;SDS011;47126;47.508;8.590;2023-11-19T05:01:28;6.00;;;2.72;;
61250;SDS011;47126;47.508;8.590;2023-11-19T05:03:55;6.72;;;3.03;;
61250;SDS011;47126;47.508;8.590;2023-11-19T05:06:25;6.18;;;2.80;;
61250;SDS011;47126;47.508;8.590;2023-11-19T05:08:51;6.32;;;3.35;;
61250;SDS011;47126;47.508;8.590;2023-11-19T05:11:18;5.68;;;2.80;;
61250;SDS011;47126;47.508;8.590;2023-11-19T05:13:45;5.47;;;2.78;;
61250;SDS011;47126;47.508;8.590;2023-11-19T05:16:11;4.78;;;2.83;;
61250;SDS011;47126;47.508;8.590;2023-11-19T05:18:40;6.03;;;3.53;;
61250;SDS011;47126;47.508;8.590;2023-11-19T05:21:06;6.78;;;3.72;;
61250;SDS011;47126;47.508;8.590;2023-11-19T05:23:33;6.18;;;2.80;;
61250;SDS011;47126;47.508;8.590;2023-11-19T05:25:59;6.78;;;3.20;;
61250;SDS011;47126;47.508;8.590;2023-11-19T05:28:25;5.07;;;3.15;;
61250;SDS011;47126;47.508;8.590;2023-11-19T05:30:51;5.32;;;2.90;;
61250;SDS011;47126;47.508;8.590;2023-11-19T05:33:17;7.38;;;3.20;;
61250;SDS011;47126;47.508;8.590;2023-11-19T05:35:43;4.72;;;2.70;;
61250;SDS011;47126;47.508;8.590;2023-11-19T05:38:09;4.72;;;2.75;;
61250;SDS011;47126;47.508;8.590;2023-11-19T05:40:35;3.90;;;2.55;;
61250;SDS011;47126;47.508;8.590;2023-11-19T05:43:03;12.48;;;7.35;;
61250;SDS011;47126;47.508;8.590;2023-11-19T05:45:30;5.32;;;3.05;;
61250;SDS011;47126;47.508;8.590;2023-11-19T05:47:56;4.97;;;2.55;;
61250;SDS011;47126;47.508;8.590;2023-11-19T05:50:22;4.78;;;2.67;;
61250;SDS011;47126;47.508;8.590;2023-11-19T05:52:49;5.60;;;2.75;;
61250;SDS011;47126;47.508;8.590;2023-11-19T05:55:15;8.18;;;2.92;;
61250;SDS011;47126;47.508;8.590;2023-11-19T05:57:41;5.07;;;2.50;;
61250;SDS011;47126;47.508;8.590;2023-11-19T06:00:07;5.00;;;2.20;;
61250;SDS011;47126;47.508;8.590;2023-11-19T06:02:37;4.97;;;2.75;;
61250;SDS011;47126;47.508;8.590;2023-11-19T06:05:04;3.25;;;2.10;;
61250;SDS011;47126;47.508;8.590;2023-11-19T06:07:31;7.05;;;3.42;;
61250;SDS011;47126;47.508;8.590;2023-11-19T06:09:57;5.05;;;2.40;;
61250;SDS011;47126;47.508;8.590;2023-11-19T06:12:23;5.63;;;2.25;;
61250;SDS011;47126;47.508;8.590;2023-11-19T06:14:49;7.05;;;2.50;;
61250;SDS011;47126;47.508;8.590;2023-11-19T06:17:15;6.00;;;2.97;;
61250;SDS011;47126;47.508;8.590;2023-11-19T06:19:41;3.65;;;2.15;;
61250;SDS011;47126;47.508;8.590;2023-11-19T06:22:07;3.78;;;2.17;;
61250;SDS011;47126;47.508;8.590;2023-11-19T06:24:33;3.97;;;2.00;;
61250;SDS011;47126;47.508;8.590;2023-11-19T06:26:59;3.00;;;1.88;;
61250;SDS011;47126;47.508;8.590;2023-11-19T06:29:25;3.53;;;1.92;;
61250;SDS011;47126;47.508;8.590;2023-11-19T06:31:50;7.53;;;2.20;;
61250;SDS011;47126;47.508;8.590;2023-11-19T06:34:16;4.35;;;2.00;;
61250;SDS011;47126;47.508;8.590;2023-11-19T06:36:43;4.63;;;2.33;;
61250;SDS011;47126;47.508;8.590;2023-11-19T06:39:09;4.45;;;2.30;;
61250;SDS011;47126;47.508;8.590;2023-11-19T06:41:38;4.15;;;2.10;;
61250;SDS011;47126;47.508;8.590;2023-11-19T06:44:04;4.32;;;1.90;;
61250;SDS011;47126;47.508;8.590;2023-11-19T06:46:30;5.72;;;2.20;;
61250;SDS011;47126;47.508;8.590;2023-11-19T06:48:57;3.67;;;2.10;;
61250;SDS011;47126;47.508;8.590;2023-11-19T06:51:23;3.30;;;2.10;;
61250;SDS011;47126;47.508;8.590;2023-11-19T06:53:52;3.13;;;1.90;;
61250;SDS011;47126;47.508;8.590;2023-11-19T06:56:22;2.97;;;1.55;;
61250;SDS011;47126;47.508;8.590;2023-11-19T06:58:48;2.92;;;1.63;;
61250;SDS011;47126;47.508;8.590;2023-11-19T07:01:15;3.10;;;2.10;;
61250;SDS011;47126;47.508;8.590;2023-11-19T07:03:41;2.55;;;1.48;;
61250;SDS011;47126;47.508;8.590;2023-11-19T07:06:07;2.75;;;1.50;;
61250;SDS011;47126;47.508;8.590;2023-11-19T07:08:33;3.08;;;1.33;;
61250;SDS011;47126;47.508;8.590;2023-11-19T07:10:59;2.00;;;1.17;;
61250;SDS011;47126;47.508;8.590;2023-11-19T07:13:26;2.92;;;1.10;;
61250;SDS011;47126;47.508;8.590;2023-11-19T07:15:53;3.08;;;1.40;;
61250;SDS011;47126;47.508;8.590;2023-11-19T07:18:19;3.08;;;1.50;;
61250;SDS011;47126;47.508;8.590;2023-11-19T07:20:47;1.73;;;1.20;;
61250;SDS011;47126;47.508;8.590;2023-11-19T07:23:13;2.47;;;1.42;;
61250;SDS011;47126;47.508;8.590;2023-11-19T07:25:41;2.22;;;1.23;;
61250;SDS011;47126;47.508;8.590;2023-11-19T07:28:08;1.98;;;1.02;;
61250;SDS011;47126;47.508;8.590;2023-11-19T07:30:35;2.50;;;1.15;;
61250;SDS011;47126;47.508;8.590;2023-11-19T07:33:01;1.75;;;1.00;;
61250;SDS011;47126;47.508;8.590;2023-11-19T07:35:29;3.13;;;1.30;;
61250;SDS011;47126;47.508;8.590;2023-11-19T07:37:55;2.63;;;1.00;;
61250;SDS011;47126;47.508;8.590;2023-11-19T07:40:22;1.95;;;1.20;;
61250;SDS011;47126;47.508;8.590;2023-11-19T07:42:49;2.03;;;1.17;;
61250;SDS011;47126;47.508;8.590;2023-11-19T07:45:15;2.67;;;1.00;;
61250;SDS011;47126;47.508;8.590;2023-11-19T07:47:41;1.65;;;1.05;;
61250;SDS011;47126;47.508;8.590;2023-11-19T07:50:09;2.53;;;1.02;;
61250;SDS011;47126;47.508;8.590;2023-11-19T07:52:37;2.58;;;1.10;;
61250;SDS011;47126;47.508;8.590;2023-11-19T07:55:03;1.50;;;0.90;;
61250;SDS011;47126;47.508;8.590;2023-11-19T07:57:30;3.13;;;1.15;;
61250;SDS011;47126;47.508;8.590;2023-11-19T07:59:59;5.35;;;1.40;;
61250;SDS011;47126;47.508;8.590;2023-11-19T08:02:26;1.65;;;1.15;;
61250;SDS011;47126;47.508;8.590;2023-11-19T08:04:53;1.65;;;1.00;;
61250;SDS011;47126;47.508;8.590;2023-11-19T08:07:20;2.22;;;1.33;;
61250;SDS011;47126;47.508;8.590;2023-11-19T08:09:46;1.55;;;1.38;;
61250;SDS011;47126;47.508;8.590;2023-11-19T08:12:12;3.78;;;1.40;;
61250;SDS011;47126;47.508;8.590;2023-11-19T08:14:40;3.08;;;2.50;;
61250;SDS011;47126;47.508;8.590;2023-11-19T08:17:06;1.25;;;0.80;;
61250;SDS011;47126;47.508;8.590;2023-11-19T08:19:32;1.40;;;1.30;;
61250;SDS011;47126;47.508;8.590;2023-11-19T08:21:58;2.72;;;1.40;;
61250;SDS011;47126;47.508;8.590;2023-11-19T08:24:24;1.75;;;1.17;;
61250;SDS011;47126;47.508;8.590;2023-11-19T08:26:50;2.05;;;1.00;;
61250;SDS011;47126;47.508;8.590;2023-11-19T08:29:16;1.13;;;0.90;;
61250;SDS011;47126;47.508;8.590;2023-11-19T08:31:43;2.15;;;0.75;;
61250;SDS011;47126;47.508;8.590;2023-11-19T08:34:08;2.67;;;1.13;;
61250;SDS011;47126;47.508;8.590;2023-11-19T08:36:34;4.57;;;2.90;;
61250;SDS011;47126;47.508;8.590;2023-11-19T08:39:00;1.42;;;0.98;;
61250;SDS011;47126;47.508;8.590;2023-11-19T08:41:27;2.00;;;1.20;;
61250;SDS011;47126;47.508;8.590;2023-11-19T08:43:53;1.58;;;0.80;;
61250;SDS011;47126;47.508;8.590;2023-11-19T08:46:19;2.63;;;0.93;;
61250;SDS011;47126;47.508;8.590;2023-11-19T08:48:45;1.45;;;0.88;;
61250;SDS011;47126;47.508;8.590;2023-11-19T08:51:12;2.38;;;1.10;;
61250;SDS011;47126;47.508;8.590;2023-11-19T08:53:43;2.72;;;0.82;;
61250;SDS011;47126;47.508;8.590;2023-11-19T08:56:11;1.25;;;0.95;;
61250;SDS011;47126;47.508;8.590;2023-11-19T08:58:38;1.67;;;1.02;;
61250;SDS011;47126;47.508;8.590;2023-11-19T09:01:11;2.25;;;1.20;;
61250;SDS011;47126;47.508;8.590;2023-11-19T09:03:37;1.30;;;1.00;;
61250;SDS011;47126;47.508;8.590;2023-11-19T09:06:08;2.95;;;0.90;;
61250;SDS011;47126;47.508;8.590;2023-11-19T09:08:37;2.60;;;0.95;;
61250;SDS011;47126;47.508;8.590;2023-11-19T09:11:06;2.50;;;1.13;;
61250;SDS011;47126;47.508;8.590;2023-11-19T09:13:36;4.82;;;1.33;;
61250;SDS011;47126;47.508;8.590;2023-11-19T09:16:11;3.92;;;1.10;;
61250;SDS011;47126;47.508;8.590;2023-11-19T09:18:42;5.60;;;1.10;;
61250;SDS011;47126;47.508;8.590;2023-11-19T09:21:13;2.75;;;1.10;;
61250;SDS011;47126;47.508;8.590;2023-11-19T09:23:39;2.20;;;1.20;;
61250;SDS011;47126;47.508;8.590;2023-11-19T09:26:05;1.70;;;1.40;;
61250;SDS011;47126;47.508;8.590;2023-11-19T09:28:31;2.58;;;1.30;;
61250;SDS011;47126;47.508;8.590;2023-11-19T09:30:57;1.55;;;1.00;;
61250;SDS011;47126;47.508;8.590;2023-11-19T09:33:24;2.53;;;1.10;;
61250;SDS011;47126;47.508;8.590;2023-11-19T09:35:50;1.75;;;1.10;;
61250;SDS011;47126;47.508;8.590;2023-11-19T09:38:16;2.50;;;1.17;;
61250;SDS011;47126;47.508;8.590;2023-11-19T09:40:42;4.82;;;1.23;;
61250;SDS011;47126;47.508;8.590;2023-11-19T09:43:08;1.70;;;1.25;;
61250;SDS011;47126;47.508;8.590;2023-11-19T09:45:50;2.83;;;1.48;;
61250;SDS011;47126;47.508;8.590;2023-11-19T09:48:17;2.28;;;1.63;;
61250;SDS011;47126;47.508;8.590;2023-11-19T09:50:44;2.35;;;1.50;;
61250;SDS011;47126;47.508;8.590;2023-11-19T09:53:11;1.55;;;1.02;;
61250;SDS011;47126;47.508;8.590;2023-11-19T09:55:39;2.38;;;1.58;;
61250;SDS011;47126;47.508;8.590;2023-11-19T09:58:05;2.33;;;1.33;;
61250;SDS011;47126;47.508;8.590;2023-11-19T10:00:34;2.17;;;1.35;;
61250;SDS011;47126;47.508;8.590;2023-11-19T10:03:00;2.78;;;1.70;;
61250;SDS011;47126;47.508;8.590;2023-11-19T10:05:26;2.85;;;1.30;;
61250;SDS011;47126;47.508;8.590;2023-11-19T10:07:52;5.22;;;1.58;;
61250;SDS011;47126;47.508;8.590;2023-11-19T10:10:20;3.20;;;1.40;;
61250;SDS011;47126;47.508;8.590;2023-11-19T10:12:46;1.67;;;1.23;;
61250;SDS011;47126;47.508;8.590;2023-11-19T10:15:17;1.83;;;1.17;;
61250;SDS011;47126;47.508;8.590;2023-11-19T10:17:46;1.00;;;0.80;;
61250;SDS011;47126;47.508;8.590;2023-11-19T10:20:12;2.45;;;1.80;;
61250;SDS011;47126;47.508;8.590;2023-11-19T10:22:38;1.58;;;1.23;;
61250;SDS011;47126;47.508;8.590;2023-11-19T10:25:22;1.52;;;1.10;;
61250;SDS011;47126;47.508;8.590;2023-11-19T10:27:48;7.93;;;1.52;;
61250;SDS011;47126;47.508;8.590;2023-11-19T10:30:27;2.60;;;1.00;;
61250;SDS011;47126;47.508;8.590;2023-11-19T10:33:13;2.45;;;1.23;;
61250;SDS011;47126;47.508;8.590;2023-11-19T10:35:55;1.58;;;1.10;;
61250;SDS011;47126;47.508;8.590;2023-11-19T10:38:25;2.25;;;1.20;;
61250;SDS011;47126;47.508;8.590;2023-11-19T10:40:51;2.60;;;1.40;;
61250;SDS011;47126;47.508;8.590;2023-11-19T10:43:21;3.17;;;1.98;;
61250;SDS011;47126;47.508;8.590;2023-11-19T10:45:48;3.95;;;2.00;;
61250;SDS011;47126;47.508;8.590;2023-11-19T10:48:14;2.15;;;1.40;;
61250;SDS011;47126;47.508;8.590;2023-11-19T10:50:40;2.05;;;1.63;;
61250;SDS011;47126;47.508;8.590;2023-11-19T10:53:09;1.73;;;1.00;;
61250;SDS011;47126;47.508;8.590;2023-11-19T10:55:36;5.85;;;1.33;;
61250;SDS011;47126;47.508;8.590;2023-11-19T10:58:06;2.25;;;1.42;;
61250;SDS011;47126;47.508;8.590;2023-11-19T11:00:43;3.15;;;1.80;;
61250;SDS011;47126;47.508;8.590;2023-11-19T11:03:20;2.63;;;1.38;;
61250;SDS011;47126;47.508;8.590;2023-11-19T11:05:52;4.00;;;1.55;;
61250;SDS011;47126;47.508;8.590;2023-11-19T11:08:19;2.83;;;1.30;;
61250;SDS011;47126;47.508;8.590;2023-11-19T11:10:55;2.47;;;1.30;;
61250;SDS011;47126;47.508;8.590;2023-11-19T11:13:23;1.70;;;1.02;;
61250;SDS011;47126;47.508;8.590;2023-11-19T11:15:49;6.10;;;1.58;;
61250;SDS011;47126;47.508;8.590;2023-11-19T11:18:16;2.05;;;1.50;;
61250;SDS011;47126;47.508;8.590;2023-11-19T11:20:50;2.50;;;1.65;;
61250;SDS011;47126;47.508;8.590;2023-11-19T11:23:23;3.75;;;1.30;;
61250;SDS011;47126;47.508;8.590;2023-11-19T11:28:46;2.55;;;1.55;;
61250;SDS011;47126;47.508;8.590;2023-11-19T11:33:59;1.77;;;1.15;;
61250;SDS011;47126;47.508;8.590;2023-11-19T11:36:28;3.63;;;1.50;;
61250;SDS011;47126;47.508;8.590;2023-11-19T11:38:58;1.98;;;1.48;;
61250;SDS011;47126;47.508;8.590;2023-11-19T11:41:25;2.50;;;1.50;;
61250;SDS011;47126;47.508;8.590;2023-11-19T11:43:52;3.63;;;1.55;;
61250;SDS011;47126;47.508;8.590;2023-11-19T11:49:00;5.57;;;1.60;;
61250;SDS011;47126;47.508;8.590;2023-11-19T11:54:11;2.88;;;1.50;;
61250;SDS011;47126;47.508;8.590;2023-11-19T11:56:37;6.10;;;1.95;;
61250;SDS011;47126;47.508;8.590;2023-11-19T11:59:18;3.88;;;2.42;;
61250;SDS011;47126;47.508;8.590;2023-11-19T12:01:59;2.70;;;1.63;;
61250;SDS011;47126;47.508;8.590;2023-11-19T12:04:26;2.83;;;1.20;;
61250;SDS011;47126;47.508;8.590;2023-11-19T12:07:06;3.38;;;1.15;;
61250;SDS011;47126;47.508;8.590;2023-11-19T12:09:36;1.58;;;1.17;;
61250;SDS011;47126;47.508;8.590;2023-11-19T12:20:03;2.38;;;1.25;;
61250;SDS011;47126;47.508;8.590;2023-11-19T12:22:39;1.45;;;1.10;;
61250;SDS011;47126;47.508;8.590;2023-11-19T12:25:06;6.28;;;1.30;;
61250;SDS011;47126;47.508;8.590;2023-11-19T12:27:32;2.42;;;1.10;;
61250;SDS011;47126;47.508;8.590;2023-11-19T12:30:02;2.57;;;1.37;;
61250;SDS011;47126;47.508;8.590;2023-11-19T12:35:04;2.08;;;1.08;;
61250;SDS011;47126;47.508;8.590;2023-11-19T12:37:30;4.07;;;1.50;;
61250;SDS011;47126;47.508;8.590;2023-11-19T12:39:57;1.75;;;1.10;;
61250;SDS011;47126;47.508;8.590;2023-11-19T12:42:38;1.70;;;1.20;;
61250;SDS011;47126;47.508;8.590;2023-11-19T12:45:05;4.18;;;1.55;;
61250;SDS011;47126;47.508;8.590;2023-11-19T12:47:31;3.70;;;1.20;;
61250;SDS011;47126;47.508;8.590;2023-11-19T12:49:57;3.05;;;1.35;;
61250;SDS011;47126;47.508;8.590;2023-11-19T12:52:23;3.65;;;1.55;;
61250;SDS011;47126;47.508;8.590;2023-11-19T12:54:49;6.13;;;1.42;;
61250;SDS011;47126;47.508;8.590;2023-11-19T12:57:16;1.80;;;1.10;;
61250;SDS011;47126;47.508;8.590;2023-11-19T12:59:53;1.90;;;1.23;;
61250;SDS011;47126;47.508;8.590;2023-11-19T13:02:20;2.53;;;1.38;;
61250;SDS011;47126;47.508;8.590;2023-11-19T13:04:46;3.25;;;1.30;;
61250;SDS011;47126;47.508;8.590;2023-11-19T13:07:12;2.30;;;1.30;;
61250;SDS011;47126;47.508;8.590;2023-11-19T13:09:38;6.10;;;1.40;;
61250;SDS011;47126;47.508;8.590;2023-11-19T13:12:14;2.92;;;1.40;;
61250;SDS011;47126;47.508;8.590;2023-11-19T13:14:40;1.90;;;1.30;;
61250;SDS011;47126;47.508;8.590;2023-11-19T13:17:14;3.25;;;1.20;;
61250;SDS011;47126;47.508;8.590;2023-11-19T13:19:40;2.60;;;1.08;;
61250;SDS011;47126;47.508;8.590;2023-11-19T13:22:06;1.67;;;0.95;;
61250;SDS011;47126;47.508;8.590;2023-11-19T13:24:32;4.53;;;1.10;;
61250;SDS011;47126;47.508;8.590;2023-11-19T13:26:58;2.05;;;0.90;;
61250;SDS011;47126;47.508;8.590;2023-11-19T13:29:24;1.05;;;0.90;;
61250;SDS011;47126;47.508;8.590;2023-11-19T13:31:50;1.83;;;1.00;;
61250;SDS011;47126;47.508;8.590;2023-11-19T13:34:16;2.25;;;1.08;;
61250;SDS011;47126;47.508;8.590;2023-11-19T13:36:42;4.10;;;1.70;;
61250;SDS011;47126;47.508;8.590;2023-11-19T13:39:08;2.88;;;1.30;;
61250;SDS011;47126;47.508;8.590;2023-11-19T13:41:34;2.45;;;1.10;;
61250;SDS011;47126;47.508;8.590;2023-11-19T13:44:00;1.75;;;1.00;;
61250;SDS011;47126;47.508;8.590;2023-11-19T13:46:26;2.33;;;0.93;;
61250;SDS011;47126;47.508;8.590;2023-11-19T13:48:52;1.50;;;0.80;;
61250;SDS011;47126;47.508;8.590;2023-11-19T13:51:18;1.05;;;0.80;;
61250;SDS011;47126;47.508;8.590;2023-11-19T13:53:44;3.90;;;1.00;;
61250;SDS011;47126;47.508;8.590;2023-11-19T13:56:10;2.00;;;0.90;;
61250;SDS011;47126;47.508;8.590;2023-11-19T13:58:36;1.75;;;0.80;;
61250;SDS011;47126;47.508;8.590;2023-11-19T14:01:05;2.15;;;1.20;;
61250;SDS011;47126;47.508;8.590;2023-11-19T14:03:31;1.58;;;1.15;;
61250;SDS011;47126;47.508;8.590;2023-11-19T14:05:58;2.72;;;0.60;;
61250;SDS011;47126;47.508;8.590;2023-11-19T14:08:25;1.23;;;0.90;;
61250;SDS011;47126;47.508;8.590;2023-11-19T14:10:51;1.48;;;0.90;;
61250;SDS011;47126;47.508;8.590;2023-11-19T14:13:20;2.80;;;0.90;;
61250;SDS011;47126;47.508;8.590;2023-11-19T14:15:46;2.08;;;1.10;;
61250;SDS011;47126;47.508;8.590;2023-11-19T14:18:12;2.75;;;1.10;;
61250;SDS011;47126;47.508;8.590;2023-11-19T14:20:38;1.20;;;0.80;;
61250;SDS011;47126;47.508;8.590;2023-11-19T14:23:04;3.58;;;1.45;;
61250;SDS011;47126;47.508;8.590;2023-11-19T14:25:30;2.97;;;1.23;;
61250;SDS011;47126;47.508;8.590;2023-11-19T14:27:56;2.63;;;1.92;;
61250;SDS011;47126;47.508;8.590;2023-11-19T14:30:22;4.65;;;2.15;;
61250;SDS011;47126;47.508;8.590;2023-11-19T14:32:48;2.65;;;1.27;;
61250;SDS011;47126;47.508;8.590;2023-11-19T14:35:14;1.20;;;1.00;;
61250;SDS011;47126;47.508;8.590;2023-11-19T14:37:40;2.65;;;1.40;;
61250;SDS011;47126;47.508;8.590;2023-11-19T14:40:07;1.02;;;0.82;;
61250;SDS011;47126;47.508;8.590;2023-11-19T14:42:36;5.88;;;1.13;;
61250;SDS011;47126;47.508;8.590;2023-11-19T14:45:02;2.25;;;1.13;;
61250;SDS011;47126;47.508;8.590;2023-11-19T14:47:28;2.00;;;1.30;;
61250;SDS011;47126;47.508;8.590;2023-11-19T14:49:55;1.55;;;0.90;;
61250;SDS011;47126;47.508;8.590;2023-11-19T14:52:21;3.38;;;1.00;;
61250;SDS011;47126;47.508;8.590;2023-11-19T14:54:47;1.63;;;0.82;;
61250;SDS011;47126;47.508;8.590;2023-11-19T14:57:14;1.65;;;0.93;;
61250;SDS011;47126;47.508;8.590;2023-11-19T14:59:40;0.80;;;0.68;;
61250;SDS011;47126;47.508;8.590;2023-11-19T15:02:06;1.70;;;0.90;;
61250;SDS011;47126;47.508;8.590;2023-11-19T15:04:32;1.48;;;0.90;;
61250;SDS011;47126;47.508;8.590;2023-11-19T15:06:59;1.02;;;0.88;;
61250;SDS011;47126;47.508;8.590;2023-11-19T15:09:25;3.10;;;1.10;;
61250;SDS011;47126;47.508;8.590;2023-11-19T15:11:55;2.38;;;1.20;;